Time;durP1;ratioP1;P1;durP2;ratioP2;P2;SDS_P1;SDS_P2;PMS_P1;PMS_P2;Temp;Humidity;BMP_temperature;BMP_pressure;BME280_temperature;BME280_humidity;BME280_pressure;Samples;Min_cycle;Max_cycle;Signal;HPM_P1;HPM_P2
2023/02/23 00:01:45;;;;;;;22.83;12.20;;;8.70;99.90;;;9.48;100.00;97773.47;5006829;28;20956;-78
2023/02/23 00:04:17;;;;;;;19.70;11.80;;;8.70;99.90;;;9.49;100.00;97767.28;5005276;28;20466;-77
2023/02/23 00:06:46;;;;;;;17.13;10.80;;;8.70;99.90;;;9.49;100.00;97780.31;5003275;28;20992;-77
2023/02/23 00:09:22;;;;;;;21.23;13.20;;;8.70;99.90;;;9.50;100.00;97775.91;5004059;28;20465;-78
2023/02/23 00:11:52;;;;;;;22.70;11.33;;;8.70;99.90;;;9.51;100.00;97773.09;5003921;28;20465;-77
2023/02/23 00:14:26;;;;;;;23.60;14.47;;;8.80;99.90;;;9.50;100.00;97768.91;5002247;28;21075;-78
2023/02/23 00:16:55;;;;;;;22.93;13.67;;;8.80;99.90;;;9.50;100.00;97771.50;5003820;28;20502;-77
2023/02/23 00:19:26;;;;;;;25.50;13.90;;;8.80;99.90;;;9.50;100.00;97768.91;5004585;28;20542;-77
2023/02/23 00:21:57;;;;;;;26.20;14.57;;;8.80;99.90;;;9.49;100.00;97772.50;5003052;28;20455;-78
2023/02/23 00:24:28;;;;;;;20.13;13.40;;;8.70;99.90;;;9.45;100.00;97768.63;5005535;28;20475;-78
2023/02/23 00:26:57;;;;;;;27.70;13.70;;;8.70;99.90;;;9.47;100.00;97766.66;5005058;28;20462;-78
2023/02/23 00:29:27;;;;;;;21.47;12.87;;;8.70;99.90;;;9.47;100.00;97768.47;5006779;28;20506;-77
2023/02/23 00:31:58;;;;;;;19.80;11.80;;;8.70;99.90;;;9.47;100.00;97774.50;5001955;28;20962;-78
2023/02/23 00:34:29;;;;;;;19.80;12.10;;;8.70;99.90;;;9.44;100.00;97768.84;5003819;28;20491;-78
2023/02/23 00:36:59;;;;;;;22.30;13.00;;;8.70;99.90;;;9.46;100.00;97764.22;5004407;28;20597;-78
2023/02/23 00:39:30;;;;;;;17.60;11.50;;;8.70;99.90;;;9.46;100.00;97766.84;5005820;28;20459;-78
2023/02/23 00:42:02;;;;;;;23.00;12.97;;;8.70;99.90;;;9.46;100.00;97759.00;5003192;28;20467;-77
2023/02/23 00:44:33;;;;;;;21.07;11.30;;;8.70;99.90;;;9.45;100.00;97755.59;5004114;28;20529;-78
2023/02/23 00:47:03;;;;;;;21.37;13.17;;;8.70;99.90;;;9.45;100.00;97760.81;5003754;28;21053;-78
2023/02/23 00:49:34;;;;;;;20.53;11.10;;;8.70;99.90;;;9.48;100.00;97760.44;5002971;28;20502;-78
2023/02/23 00:52:04;;;;;;;20.20;10.50;;;8.70;99.90;;;9.46;100.00;97759.81;5004218;28;20853;-78
2023/02/23 00:54:34;;;;;;;18.17;11.37;;;8.70;99.90;;;9.45;100.00;97758.19;5002837;28;20513;-78
2023/02/23 00:57:04;;;;;;;14.87;10.60;;;8.70;99.90;;;9.43;100.00;97760.19;5002007;28;20460;-78
2023/02/23 00:59:33;;;;;;;24.30;12.27;;;8.60;99.90;;;9.44;100.00;97756.56;5004708;28;20513;-78
2023/02/23 01:02:03;;;;;;;20.60;11.90;;;8.60;99.90;;;9.45;100.00;97755.59;5001110;28;20499;-78
2023/02/23 01:04:34;;;;;;;18.00;12.37;;;8.60;99.90;;;9.45;100.00;97749.56;5003615;28;20469;-78
2023/02/23 01:07:05;;;;;;;21.10;12.30;;;8.70;99.90;;;9.47;100.00;97751.00;5002194;28;20470;-78
2023/02/23 01:09:36;;;;;;;21.03;12.90;;;8.70;99.90;;;9.46;100.00;97754.59;5005215;28;20459;-77
2023/02/23 01:12:07;;;;;;;20.87;11.60;;;8.70;99.90;;;9.47;100.00;97760.63;5002254;28;20454;-78
2023/02/23 01:14:37;;;;;;;25.30;12.83;;;8.70;99.90;;;9.47;100.00;97764.06;5003711;28;20534;-79
2023/02/23 01:17:07;;;;;;;21.70;13.03;;;8.70;99.90;;;9.47;100.00;97760.63;5002521;28;20495;-78
2023/02/23 01:19:37;;;;;;;18.30;11.40;;;8.70;99.90;;;9.48;100.00;97757.00;5003813;28;20463;-77
2023/02/23 01:22:08;;;;;;;18.60;12.00;;;8.70;99.90;;;9.47;100.00;97756.22;5002006;28;20475;-78
2023/02/23 01:24:38;;;;;;;26.30;12.40;;;8.70;99.90;;;9.46;100.00;97759.81;5004551;28;20463;-78
2023/02/23 01:27:08;;;;;;;16.73;10.67;;;8.70;99.90;;;9.46;100.00;97759.81;5003760;28;20490;-78
2023/02/23 01:29:37;;;;;;;21.93;12.40;;;8.70;99.90;;;9.45;100.00;97758.19;5002496;28;20755;-78
2023/02/23 01:32:07;;;;;;;21.30;11.87;;;8.70;99.90;;;9.46;100.00;97754.59;5002801;28;20472;-78
2023/02/23 01:34:38;;;;;;;18.30;11.70;;;8.70;99.90;;;9.46;100.00;97757.22;5002687;28;20839;-78
2023/02/23 01:37:08;;;;;;;19.60;12.00;;;8.70;99.90;;;9.48;100.00;97757.00;5004516;28;20915;-77
2023/02/23 01:39:38;;;;;;;19.20;11.80;;;8.70;99.90;;;9.47;100.00;97756.22;5002950;28;20467;-78
2023/02/23 01:42:12;;;;;;;19.23;12.37;;;8.70;99.90;;;9.48;100.00;97757.00;5002888;28;20514;-78
2023/02/23 01:45:34;;;;;;;24.83;12.10;;;8.70;99.90;;;9.46;100.00;97753.78;5005156;28;21043;-78
2023/02/23 01:48:11;;;;;;;22.10;11.00;;;8.70;99.90;;;9.47;100.00;97758.84;5005602;28;20561;-78
2023/02/23 01:50:51;;;;;;;20.17;11.20;;;8.70;99.90;;;9.47;100.00;97750.19;5000814;28;20494;-78
2023/02/23 01:53:21;;;;;;;22.70;13.63;;;8.70;99.90;;;9.49;100.00;97750.78;5002869;28;21184;-78
2023/02/23 01:55:56;;;;;;;23.60;13.10;;;8.80;99.90;;;9.50;100.00;97740.19;5004552;28;21228;-79
2023/02/23 01:58:29;;;;;;;19.43;11.33;;;8.80;99.90;;;9.46;100.00;97749.38;5001547;28;20598;-78
2023/02/23 02:01:01;;;;;;;23.60;11.57;;;8.70;99.90;;;9.48;100.00;97749.97;5003596;28;20518;-77
2023/02/23 02:03:38;;;;;;;21.37;11.53;;;8.70;99.90;;;9.49;100.00;97748.19;5001007;28;20482;-78
2023/02/23 02:06:13;;;;;;;24.57;12.20;;;8.70;99.90;;;9.49;100.00;97742.97;5004190;28;20525;-78
2023/02/23 02:08:49;;;;;;;32.17;13.10;;;8.70;99.90;;;9.49;100.00;97737.75;5002131;28;20494;-78
2023/02/23 02:11:29;;;;;;;17.57;11.40;;;8.70;99.90;;;9.46;100.00;97740.75;4996413;28;20955;-78
2023/02/23 02:14:02;;;;;;;19.87;10.90;;;8.70;99.90;;;9.46;100.00;97741.53;5005552;28;20462;-78
2023/02/23 02:17:04;;;;;;;27.63;12.00;;;8.70;99.90;;;9.46;100.00;97741.53;5005405;28;20463;-78
2023/02/23 02:20:25;;;;;;;21.40;11.17;;;8.70;99.90;;;9.45;100.00;97736.50;5003188;28;20458;-78
2023/02/23 02:23:49;;;;;;;19.93;11.30;;;8.70;99.90;;;9.40;100.00;97734.47;5003352;28;20495;-78
2023/02/23 02:26:34;;;;;;;17.73;11.30;;;8.70;99.90;;;9.37;100.00;97741.88;5003568;28;20550;-77
2023/02/23 02:29:54;;;;;;;19.80;12.03;;;8.60;99.90;;;9.38;100.00;97731.22;5004851;28;20462;-78
2023/02/23 02:32:56;;;;;;;22.00;11.37;;;8.60;99.90;;;9.40;100.00;97736.28;5005450;28;20847;-78
2023/02/23 02:36:14;;;;;;;18.03;10.33;;;8.60;99.90;;;9.41;100.00;97730.03;5003868;28;20966;-78
2023/02/23 02:39:06;;;;;;;17.50;11.53;;;8.60;99.90;;;9.40;100.00;97721.44;4971144;28;20557;-78
2023/02/23 02:41:49;;;;;;;18.53;10.37;;;8.60;99.90;;;9.38;100.00;97720.78;5004307;28;20961;-78
2023/02/23 02:44:31;;;;;;;20.30;10.00;;;8.60;99.90;;;9.32;100.00;97726.75;5005926;28;20466;-78
2023/02/23 02:47:11;;;;;;;16.90;10.30;;;8.50;99.90;;;9.34;100.00;97727.38;5003541;28;20450;-78
2023/02/23 02:49:51;;;;;;;17.73;11.40;;;8.50;99.90;;;9.35;100.00;97723.78;5002863;28;20533;-77
2023/02/23 02:52:29;;;;;;;22.47;10.50;;;8.60;99.90;;;9.35;100.00;97715.94;5005226;28;20447;-78
2023/02/23 02:55:11;;;;;;;19.83;10.37;;;8.60;99.90;;;9.34;100.00;97714.31;5002093;28;20590;-78
2023/02/23 02:57:45;;;;;;;18.70;10.20;;;8.60;99.90;;;9.35;100.00;97726.38;5002009;28;20482;-78
2023/02/23 04:19:05;;;;;;;30.67;13.33;;;8.70;99.90;;;9.39;100.00;97742.47;5004139;28;20499;-78
2023/02/23 04:21:34;;;;;;;34.17;14.67;;;8.60;99.90;;;9.38;100.00;97746.88;5003360;28;20483;-78
2023/02/23 04:24:03;;;;;;;30.00;14.93;;;8.60;99.90;;;9.38;100.00;97751.28;5006614;28;20496;-78
2023/02/23 04:26:33;;;;;;;33.07;14.03;;;8.60;99.90;;;9.39;100.00;97753.72;5006411;28;20993;-78
2023/02/23 04:29:04;;;;;;;30.63;14.07;;;8.60;99.90;;;9.40;100.00;97752.75;5006950;28;20528;-78
2023/02/23 04:31:33;;;;;;;33.50;15.27;;;8.60;99.90;;;9.40;100.00;97752.75;5006490;28;20529;-78
2023/02/23 04:34:04;;;;;;;34.97;14.70;;;8.60;99.90;;;9.41;100.00;97751.72;5005936;28;20470;-78
2023/02/23 04:36:33;;;;;;;36.13;16.07;;;8.70;99.90;;;9.41;100.00;97751.72;5002413;28;20530;-74
2023/02/23 04:39:04;;;;;;;179.63;75.33;;;8.70;99.90;;;9.41;100.00;97759.56;5002718;28;20975;-78
2023/02/23 04:41:35;;;;;;;36.33;15.97;;;8.70;99.90;;;9.41;100.00;97758.75;5003915;28;20458;-78
2023/02/23 04:44:04;;;;;;;29.23;13.60;;;8.70;99.90;;;9.41;100.00;97756.13;5003140;28;21497;-79
2023/02/23 04:46:34;;;;;;;33.20;15.77;;;8.70;99.90;;;9.41;100.00;97756.94;5002484;28;20477;-79
2023/02/23 04:49:05;;;;;;;30.73;14.53;;;8.70;99.90;;;9.43;100.00;97762.81;5003189;28;20478;-78
2023/02/23 04:51:37;;;;;;;25.57;13.03;;;8.70;99.90;;;9.42;100.00;97755.97;4999619;28;20478;-78
2023/02/23 04:54:08;;;;;;;29.40;14.00;;;8.70;99.90;;;9.42;100.00;97761.19;5006893;28;20459;-78
2023/02/23 04:56:39;;;;;;;33.17;13.50;;;8.70;99.90;;;9.42;100.00;97758.56;5004796;28;20502;-78
2023/02/23 04:59:10;;;;;;;27.57;12.77;;;8.70;99.90;;;9.42;100.00;97758.56;5006751;28;20455;-78
2023/02/23 05:01:38;;;;;;;28.03;13.40;;;8.70;99.90;;;9.42;100.00;97758.56;5005765;28;20533;-78
2023/02/23 05:04:09;;;;;;;22.23;12.23;;;8.70;99.90;;;9.41;100.00;97759.56;5006379;28;20466;-78
2023/02/23 05:06:41;;;;;;;23.80;12.73;;;8.70;99.90;;;9.42;100.00;97750.75;5006340;28;20478;-79
2023/02/23 05:09:11;;;;;;;25.00;13.30;;;8.70;99.90;;;9.40;100.00;97747.53;5005920;28;20492;-79
2023/02/23 05:11:41;;;;;;;26.27;12.63;;;8.70;99.90;;;9.39;100.00;97751.13;5003321;28;20481;-78
2023/02/23 05:14:11;;;;;;;27.80;13.30;;;8.60;99.90;;;9.39;100.00;97748.50;5006046;28;20981;-78
2023/02/23 05:16:40;;;;;;;24.07;12.70;;;8.60;99.90;;;9.37;100.00;97755.69;5005927;28;20486;-78
2023/02/23 05:19:12;;;;;;;22.20;11.20;;;8.60;99.90;;;9.36;100.00;97754.09;5005647;28;21115;-78
2023/02/23 05:21:43;;;;;;;26.57;12.70;;;8.60;99.90;;;9.34;100.00;97753.47;5005564;28;20451;-78
2023/02/23 05:24:14;;;;;;;22.27;11.70;;;8.60;99.90;;;9.33;100.00;97756.28;5006535;28;21010;-78
2023/02/23 05:26:45;;;;;;;25.93;12.40;;;8.50;99.90;;;9.33;100.00;97758.88;5002772;28;20924;-78
2023/02/23 05:29:15;;;;;;;22.10;12.47;;;8.50;99.90;;;9.29;100.00;97768.88;5002237;28;20459;-78
2023/02/23 05:31:47;;;;;;;31.23;15.77;;;8.50;99.90;;;9.29;100.00;97771.50;4997499;28;20521;-78
2023/02/23 05:34:20;;;;;;;25.37;10.90;;;8.50;99.90;;;9.29;100.00;97771.50;5003303;28;20463;-78
2023/02/23 05:36:50;;;;;;;24.23;11.70;;;8.60;99.90;;;9.29;100.00;97758.44;5002340;28;20502;-78
2023/02/23 05:39:21;;;;;;;21.20;11.60;;;8.60;99.90;;;9.29;100.00;97758.44;5000366;28;20467;-78
2023/02/23 05:41:51;;;;;;;24.47;12.93;;;8.60;99.90;;;9.28;100.00;97767.25;4997132;28;20465;-78
2023/02/23 05:44:21;;;;;;;21.97;11.50;;;8.60;99.90;;;9.27;100.00;97768.25;4994951;28;20538;-79
2023/02/23 05:46:51;;;;;;;24.20;12.40;;;8.50;99.90;;;9.27;100.00;97760.41;4995100;28;20967;-79
2023/02/23 05:49:22;;;;;;;18.13;10.97;;;8.50;99.90;;;9.24;100.00;97755.56;4995677;28;20542;-78
2023/02/23 05:51:56;;;;;;;24.77;11.50;;;8.50;99.90;;;9.23;100.00;97753.97;4994710;28;20501;-78
2023/02/23 05:54:26;;;;;;;19.77;11.13;;;8.50;99.90;;;9.20;100.00;97756.16;4994735;28;21251;-78
2023/02/23 05:56:56;;;;;;;25.63;12.90;;;8.50;99.90;;;9.16;100.00;97758.31;4994592;28;20835;-78
2023/02/23 05:59:29;;;;;;;28.40;12.37;;;8.40;99.90;;;9.09;100.00;97755.63;4995340;28;20463;-78
2023/02/23 06:01:59;;;;;;;20.90;11.60;;;8.30;99.90;;;9.02;100.00;97757.34;4997606;28;20498;-79
2023/02/23 06:04:30;;;;;;;24.63;11.57;;;8.30;99.90;;;9.04;100.00;97757.19;4994025;28;20983;-78
2023/02/23 06:07:00;;;;;;;18.83;12.40;;;8.30;99.90;;;9.01;100.00;97758.34;4994434;28;20890;-78
2023/02/23 06:09:30;;;;;;;20.00;10.13;;;8.30;99.90;;;8.99;100.00;97751.69;4993708;28;20455;-79
2023/02/23 06:11:59;;;;;;;16.20;10.27;;;8.30;99.90;;;8.94;100.00;97760.09;4991490;28;20463;-79
2023/02/23 06:14:31;;;;;;;17.77;10.00;;;8.10;99.90;;;8.93;100.00;97761.06;5003932;28;20470;-79
2023/02/23 06:17:00;;;;;;;17.90;9.93;;;8.10;99.90;;;8.90;100.00;97760.63;5004450;28;20548;-79
2023/02/23 06:19:33;;;;;;;14.13;8.90;;;8.20;99.90;;;8.80;100.00;97767.94;5001364;28;20478;-78
2023/02/23 06:22:03;;;;;;;17.70;9.00;;;8.00;99.90;;;8.78;100.00;97762.88;5001040;28;20463;-79
2023/02/23 06:24:33;;;;;;;13.53;9.03;;;7.90;99.90;;;8.76;100.00;97771.88;5001034;28;21305;-79
2023/02/23 06:27:04;;;;;;;12.17;8.37;;;7.90;99.90;;;8.69;100.00;97778.81;5002252;28;20514;-79
2023/02/23 06:29:33;;;;;;;14.57;8.40;;;7.90;99.90;;;8.57;100.00;97776.66;5001597;28;20665;-79
2023/02/23 06:32:03;;;;;;;15.63;9.30;;;7.80;99.90;;;8.57;100.00;97781.88;5000803;28;20501;-78
2023/02/23 06:34:35;;;;;;;17.90;10.90;;;7.80;99.90;;;8.56;100.00;97782.06;5003171;28;20463;-79
2023/02/23 06:37:06;;;;;;;26.73;9.63;;;7.70;99.90;;;8.55;100.00;97788.25;4998508;28;21336;-78
2023/02/23 06:39:37;;;;;;;12.80;8.37;;;7.70;99.90;;;8.52;100.00;97786.84;5001470;28;20501;-80
2023/02/23 06:42:07;;;;;;;11.30;7.77;;;7.70;99.90;;;8.49;100.00;97787.19;5001980;28;20463;-78
2023/02/23 06:44:38;;;;;;;14.13;9.17;;;7.70;99.90;;;8.50;100.00;97791.41;5001359;28;20529;-78
2023/02/23 06:47:09;;;;;;;12.03;8.40;;;7.70;99.90;;;8.46;100.00;97792.78;4999941;28;21010;-79
2023/02/23 06:49:41;;;;;;;13.37;8.37;;;7.60;99.90;;;8.46;100.00;97791.97;5003542;28;20475;-78
2023/02/23 06:52:12;;;;;;;14.57;9.70;;;7.60;99.90;;;8.44;100.00;97789.53;5000815;28;21022;-78
2023/02/23 06:54:41;;;;;;;12.80;7.63;;;7.60;99.90;;;8.43;100.00;97797.53;4998744;28;21607;-78
2023/02/23 06:57:12;;;;;;;15.80;9.47;;;7.60;99.90;;;8.39;100.00;97797.09;5000748;28;20486;-75
2023/02/23 06:59:42;;;;;;;26.33;13.90;;;7.60;99.90;;;8.40;100.00;97798.69;5001117;28;20526;-79
2023/02/23 07:02:13;;;;;;;14.83;9.70;;;7.60;99.90;;;8.40;100.00;97803.09;4998579;28;20514;-78
2023/02/23 07:04:44;;;;;;;13.33;7.60;;;7.60;99.90;;;8.41;100.00;97808.13;5000639;28;20546;-78
2023/02/23 07:07:14;;;;;;;12.50;9.20;;;7.60;99.90;;;8.43;100.00;97811.38;5001929;28;20503;-78
2023/02/23 07:09:45;;;;;;;13.07;9.17;;;7.70;99.90;;;8.44;100.00;97818.19;4998519;28;20459;-79
2023/02/23 07:12:16;;;;;;;12.53;8.20;;;7.70;99.90;;;8.45;100.00;97814.59;5002233;28;20533;-79
2023/02/23 07:14:45;;;;;;;13.83;8.57;;;7.60;99.90;;;8.46;100.00;97823.22;4999904;28;25384;-78
2023/02/23 07:17:16;;;;;;;16.80;9.30;;;7.70;99.90;;;8.49;100.00;97818.47;5006500;28;20857;-78
2023/02/23 07:19:48;;;;;;;14.37;9.13;;;7.70;99.90;;;8.50;100.00;97830.47;5001420;28;20470;-78
2023/02/23 07:22:18;;;;;;;12.43;8.10;;;7.80;99.90;;;8.50;100.00;97827.09;5005548;28;20459;-79
2023/02/23 07:24:48;;;;;;;13.57;8.67;;;7.80;99.90;;;8.48;100.00;97837.69;5006908;28;20463;-79
2023/02/23 07:27:19;;;;;;;15.40;8.57;;;7.80;99.90;;;8.49;100.00;97841.09;5001867;28;20534;-78
2023/02/23 07:29:49;;;;;;;15.77;9.30;;;7.80;99.90;;;8.49;100.00;97848.91;5002953;28;20481;-78
2023/02/23 07:32:19;;;;;;;17.40;10.13;;;7.80;99.90;;;8.50;100.00;97845.34;5002253;28;20895;-79
2023/02/23 07:34:50;;;;;;;13.50;9.00;;;7.90;99.90;;;8.47;100.00;97843.06;5004360;28;20463;-78
2023/02/23 07:37:22;;;;;;;15.70;10.10;;;7.80;99.90;;;8.49;100.00;97844.53;5004465;28;20512;-78
2023/02/23 07:39:52;;;;;;;13.80;8.97;;;7.80;99.90;;;8.50;100.00;97840.13;5004597;28;21038;-78
2023/02/23 07:42:22;;;;;;;14.00;9.33;;;7.80;99.90;;;8.53;100.00;97847.59;5004199;28;20463;-78
2023/02/23 07:44:51;;;;;;;16.93;9.57;;;7.90;99.90;;;8.55;100.00;97843.81;5004918;28;20498;-79
2023/02/23 07:47:29;;;;;;;20.53;10.77;;;7.90;99.90;;;8.58;100.00;97846.03;5006493;28;20554;-78
2023/02/23 07:50:02;;;;;;;18.67;9.67;;;7.90;99.90;;;8.62;100.00;97850.91;5004887;28;20462;-78
2023/02/23 07:52:32;;;;;;;20.90;11.13;;;7.90;99.90;;;8.62;100.00;97853.50;5004545;28;21259;-79
2023/02/23 07:55:03;;;;;;;14.73;8.80;;;7.90;99.90;;;8.64;100.00;97852.34;5005132;28;21098;-78
2023/02/23 07:57:32;;;;;;;15.60;9.27;;;7.90;99.90;;;8.65;100.00;97851.34;5004631;28;20499;-78
2023/02/23 08:00:03;;;;;;;10.93;7.80;;;8.00;99.90;;;8.64;100.00;97860.19;5004064;28;20466;-79
2023/02/23 08:02:33;;;;;;;14.37;7.97;;;7.90;99.90;;;8.64;100.00;97864.56;5004348;28;20490;-78
2023/02/23 08:05:05;;;;;;;13.13;8.37;;;8.00;99.90;;;8.64;100.00;97862.78;5005101;28;20485;-79
2023/02/23 08:07:35;;;;;;;13.70;8.87;;;8.00;99.90;;;8.68;100.00;97861.41;5003530;28;20540;-79
2023/02/23 08:10:05;;;;;;;14.30;9.50;;;8.00;99.90;;;8.70;100.00;97861.25;5003564;28;20474;-79
2023/02/23 08:12:35;;;;;;;13.33;8.17;;;8.10;99.90;;;8.76;100.00;97865.72;5005078;28;20467;-78
2023/02/23 08:15:07;;;;;;;16.63;9.07;;;8.20;99.90;;;8.76;100.00;97860.53;5006427;28;20481;-78
2023/02/23 08:17:40;;;;;;;14.33;9.70;;;8.20;99.90;;;8.80;100.00;97867.00;5002686;28;20995;-78
2023/02/23 08:20:12;;;;;;;100.83;50.27;;;8.20;99.90;;;8.82;100.00;97868.44;5004131;28;20994;-74
2023/02/23 08:22:41;;;;;;;12.07;8.13;;;8.20;99.90;;;8.86;100.00;97863.66;5004886;28;20878;-80
2023/02/23 08:25:19;;;;;;;14.20;9.00;;;8.20;99.90;;;8.89;100.00;97871.13;5005649;28;20532;-79
2023/02/23 08:27:50;;;;;;;12.37;7.60;;;8.30;99.90;;;8.92;100.00;97865.56;5003233;28;21046;-79
2023/02/23 08:30:22;;;;;;;17.10;8.67;;;8.30;99.90;;;8.92;100.00;97876.78;5005981;28;20459;-79
2023/02/23 08:32:52;;;;;;;11.10;7.50;;;8.30;99.90;;;8.95;100.00;97871.22;5002894;28;20489;-79
2023/02/23 08:35:23;;;;;;;11.40;8.00;;;8.30;99.90;;;8.97;100.00;97874.44;5005022;28;20838;-78
2023/02/23 08:37:52;;;;;;;28.40;15.47;;;8.30;99.90;;;9.01;100.00;97877.50;5003519;28;20533;-79
2023/02/23 08:40:22;;;;;;;14.57;8.40;;;8.40;99.90;;;9.04;100.00;97874.53;5004172;28;20539;-79
2023/02/23 08:42:51;;;;;;;14.10;8.00;;;8.50;99.90;;;9.06;100.00;97872.53;5003614;28;20490;-76
2023/02/23 08:45:21;;;;;;;17.67;9.60;;;8.50;99.90;;;9.09;100.00;97878.22;5000868;28;20468;-79
2023/02/23 08:47:52;;;;;;;10.77;7.50;;;8.50;99.90;;;9.12;100.00;97877.06;5001220;28;20463;-79
2023/02/23 08:50:23;;;;;;;12.93;8.10;;;8.50;99.90;;;9.16;100.00;97867.88;5006315;28;20458;-79
2023/02/23 08:52:55;;;;;;;11.23;8.30;;;8.50;99.90;;;9.20;100.00;97866.50;5006572;28;21298;-79
2023/02/23 08:55:25;;;;;;;12.40;8.30;;;8.50;99.90;;;9.25;100.00;97866.78;5007165;28;20471;-79
2023/02/23 08:57:54;;;;;;;13.50;8.40;;;8.60;99.90;;;9.31;100.00;97858.22;5006407;28;20498;-79
2023/02/23 09:00:25;;;;;;;12.50;7.80;;;8.70;99.90;;;9.35;100.00;97871.69;5002762;28;20473;-79
2023/02/23 09:02:56;;;;;;;12.90;7.37;;;8.80;99.90;;;9.33;100.00;97869.28;5005909;28;20487;-80
2023/02/23 09:05:27;;;;;;;12.97;8.37;;;8.70;99.90;;;9.39;100.00;97865.94;5005477;28;20471;-79
2023/02/23 09:07:58;;;;;;;11.20;8.00;;;8.90;99.90;;;9.43;100.00;97875.03;5007361;28;20505;-79
2023/02/23 09:10:29;;;;;;;14.67;7.13;;;8.90;99.90;;;9.44;100.00;97870.63;5006109;28;20541;-79
2023/02/23 09:12:59;;;;;;;11.77;8.00;;;8.80;99.90;;;9.48;100.00;97871.84;5006977;28;20471;-79
2023/02/23 09:15:30;;;;;;;18.50;8.30;;;8.80;99.90;;;9.52;100.00;97873.91;5005967;28;20546;-79
2023/02/23 09:18:01;;;;;;;14.50;6.83;;;8.90;99.90;;;9.55;100.00;97878.75;5007119;28;20542;-79
2023/02/23 09:20:32;;;;;;;10.10;7.23;;;8.90;99.90;;;9.58;100.00;97883.59;5005481;28;21051;-79
2023/02/23 09:23:03;;;;;;;11.67;8.20;;;9.00;99.90;;;9.63;100.00;97885.66;5004706;28;20463;-79
2023/02/23 09:25:32;;;;;;;8.10;6.40;;;9.00;99.90;;;9.68;100.00;97882.50;5007327;28;20874;-79
2023/02/23 09:28:02;;;;;;;11.17;7.27;;;9.10;99.90;;;9.72;100.00;97884.53;5006523;28;20467;-79
2023/02/23 09:30:31;;;;;;;11.97;7.90;;;9.20;99.90;;;9.78;100.00;97883.00;5004820;28;20833;-79
2023/02/23 09:33:01;;;;;;;13.80;7.93;;;9.30;99.90;;;9.83;100.00;97883.25;5005217;28;20980;-79
2023/02/23 09:35:35;;;;;;;10.90;7.33;;;9.40;99.90;;;9.87;100.00;97887.09;5005037;28;20467;-79
2023/02/23 09:38:07;;;;;;;12.50;7.50;;;9.40;99.90;;;9.89;100.00;97887.75;5005024;28;20487;-79
2023/02/23 09:40:48;;;;;;;8.50;6.63;;;9.40;99.90;;;9.93;100.00;97887.16;5005507;28;20517;-79
2023/02/23 09:43:29;;;;;;;12.40;7.47;;;9.50;99.90;;;9.95;100.00;97893.03;5005474;28;20467;-79
2023/02/23 09:46:14;;;;;;;10.83;6.60;;;9.50;99.90;;;10.00;100.00;97893.25;5005914;28;20846;-79
2023/02/23 09:48:44;;;;;;;13.80;7.67;;;9.60;99.90;;;10.03;100.00;97897.31;5006397;28;20499;-79
2023/02/23 09:51:21;;;;;;;10.80;7.20;;;9.60;99.90;;;10.07;100.00;97903.78;5006920;28;20479;-79
2023/02/23 09:53:55;;;;;;;10.73;7.60;;;9.70;99.90;;;10.10;100.00;97908.63;5006057;28;20464;-79
2023/02/23 09:56:34;;;;;;;11.03;7.50;;;9.70;99.90;;;10.13;100.00;97905.66;5005723;28;20546;-79
2023/02/23 09:59:05;;;;;;;9.60;6.90;;;9.80;99.90;;;10.14;100.00;97899.44;5004529;28;20498;-79
2023/02/23 10:01:59;;;;;;;15.50;7.23;;;9.80;99.90;;;10.14;100.00;97907.28;5004171;28;21104;-79
2023/02/23 10:04:35;;;;;;;15.30;6.63;;;9.80;99.90;;;10.17;100.00;97913.97;5003431;28;20569;-79
2023/02/23 10:07:13;;;;;;;10.93;6.47;;;9.80;99.90;;;10.20;100.00;97913.59;5005117;28;20462;-79
2023/02/23 10:10:13;;;;;;;11.80;6.13;;;9.90;99.90;;;10.23;100.00;97906.19;5005174;28;20470;-79
2023/02/23 10:12:54;;;;;;;10.37;6.87;;;9.90;99.90;;;10.24;100.00;97920.84;5005440;28;20541;-79
2023/02/23 10:15:34;;;;;;;11.50;6.50;;;9.80;99.90;;;10.28;100.00;97921.28;5003695;28;20497;-79
2023/02/23 10:18:24;;;;;;;8.60;6.10;;;9.90;99.90;;;10.29;100.00;97918.47;5006268;28;21018;-79
2023/02/23 10:21:21;;;;;;;9.80;6.23;;;9.90;99.90;;;10.32;100.00;97914.69;5005144;28;21051;-79
2023/02/23 10:23:59;;;;;;;10.43;6.93;;;9.90;99.90;;;10.34;100.00;97917.94;5004348;28;20795;-79
2023/02/23 10:26:39;;;;;;;8.33;4.80;;;10.00;99.90;;;10.35;100.00;97915.13;5005636;28;20498;-79
2023/02/23 10:29:22;;;;;;;8.97;6.60;;;10.00;99.90;;;10.38;100.00;97917.34;5005329;28;20549;-79
2023/02/23 10:32:01;;;;;;;12.53;6.13;;;10.00;99.90;;;10.40;100.00;97917.97;5004613;28;20541;-79
2023/02/23 10:34:32;;;;;;;11.53;5.80;;;10.00;99.90;;;10.41;100.00;97916.97;5005081;28;20839;-79
2023/02/23 10:37:05;;;;;;;8.40;5.77;;;9.90;99.90;;;10.38;100.00;97922.56;5003906;28;21213;-79
2023/02/23 10:39:36;;;;;;;7.37;5.80;;;9.80;99.90;;;10.42;100.00;97929.03;5003313;28;20599;-79
2023/02/23 10:42:12;;;;;;;7.70;5.27;;;9.80;99.90;;;10.38;100.00;97924.38;5004982;28;20498;-79
2023/02/23 10:44:45;;;;;;;6.77;5.00;;;9.80;99.90;;;10.40;100.00;97925.00;5004544;28;20493;-79
2023/02/23 10:47:21;;;;;;;6.40;4.63;;;9.80;99.90;;;10.41;100.00;97926.63;5005241;28;20458;-79
2023/02/23 10:49:53;;;;;;;11.13;6.03;;;9.80;99.90;;;10.40;100.00;97925.81;5003364;28;20991;-79
2023/02/23 10:52:33;;;;;;;9.03;6.17;;;9.80;99.90;;;10.43;100.00;97925.44;5004712;28;20482;-79
2023/02/23 10:55:25;;;;;;;9.10;5.60;;;9.80;99.90;;;10.41;100.00;97930.03;5004891;28;20999;-79
2023/02/23 10:58:15;;;;;;;8.87;5.57;;;9.80;99.90;;;10.44;100.00;97931.47;5003660;28;20470;-78
2023/02/23 11:00:55;;;;;;;10.10;6.40;;;9.80;99.90;;;10.44;100.00;97929.69;5003095;28;20463;-79
2023/02/23 11:03:29;;;;;;;9.50;5.60;;;9.90;99.90;;;10.44;100.00;97927.06;5004199;28;21483;-78
2023/02/23 11:05:59;;;;;;;8.73;5.60;;;9.90;99.90;;;10.44;100.00;97934.91;5005012;28;20493;-78
2023/02/23 11:08:33;;;;;;;7.00;5.07;;;9.90;99.90;;;10.43;100.00;97930.66;5004996;28;20467;-79
2023/02/23 11:11:18;;;;;;;7.30;5.23;;;9.80;99.90;;;10.44;100.00;97934.09;5004276;28;20459;-79
2023/02/23 11:13:50;;;;;;;7.40;4.70;;;9.80;99.90;;;10.44;100.00;97926.25;5003741;28;20467;-79
2023/02/23 11:16:22;;;;;;;9.90;6.00;;;9.80;99.90;;;10.46;100.00;97929.47;5005418;28;20478;-78
2023/02/23 11:18:55;;;;;;;9.70;6.10;;;9.80;99.90;;;10.47;100.00;97926.69;5003331;28;20483;-79
2023/02/23 11:21:32;;;;;;;8.83;5.30;;;9.90;99.90;;;10.48;100.00;97923.06;5004630;28;20493;-75
2023/02/23 11:24:15;;;;;;;15.30;9.03;;;9.90;99.90;;;10.50;100.00;97931.53;4993435;28;20474;-79
2023/02/23 11:26:50;;;;;;;11.30;6.63;;;9.90;99.90;;;10.51;100.00;97925.31;5001857;28;20467;-79
2023/02/23 11:29:32;;;;;;;7.10;5.30;;;9.90;99.90;;;10.54;100.00;97930.16;5002994;28;21022;-79
2023/02/23 11:32:12;;;;;;;10.43;5.40;;;9.90;99.90;;;10.56;100.00;97925.53;5000454;28;20498;-79
2023/02/23 11:34:43;;;;;;;7.93;5.63;;;10.00;99.90;;;10.52;100.00;97921.69;5001958;28;20458;-79
2023/02/23 11:37:22;;;;;;;8.87;5.40;;;10.00;99.90;;;10.52;100.00;97921.69;4999749;28;21120;-79
2023/02/23 11:39:56;;;;;;;9.47;6.50;;;10.00;99.90;;;10.52;100.00;97920.88;5000791;28;21279;-79
2023/02/23 11:42:32;;;;;;;9.70;6.50;;;10.00;99.90;;;10.55;100.00;97908.22;4999926;28;20455;-79
2023/02/23 11:45:06;;;;;;;12.83;6.67;;;10.00;99.90;;;10.56;100.00;97912.47;5000405;28;20470;-79
2023/02/23 11:47:45;;;;;;;13.23;6.57;;;10.00;99.90;;;10.58;100.00;97907.06;5001302;28;20473;-79
2023/02/23 11:50:31;;;;;;;10.93;6.17;;;10.10;99.90;;;10.60;100.00;97905.88;5001063;28;21031;-79
2023/02/23 11:53:05;;;;;;;9.33;6.53;;;10.10;99.90;;;10.60;100.00;97907.66;5002526;28;20467;-79
2023/02/23 11:55:38;;;;;;;8.07;5.90;;;10.10;99.90;;;10.63;100.00;97901.25;5001121;28;20904;-79
2023/02/23 11:58:26;;;;;;;9.13;6.30;;;10.10;99.90;;;10.64;100.00;97903.69;4999177;28;20534;-79
2023/02/23 12:01:01;;;;;;;8.40;6.00;;;10.00;99.90;;;10.67;100.00;97900.69;5000953;28;21064;-79
2023/02/23 12:03:34;;;;;;;9.53;6.40;;;10.00;99.90;;;10.67;100.00;97900.69;5004583;28;21027;-79